Flight Track Log - Related Links

Times and Time Zones

All times are in EDT time to prevent confusion due to time zone crossing. See the SWA395 flight status page for this flight to view local times or setup timezone preferences in your user account.

Time Position Orientation Groundspeed Altitude Reporting Facility
EDT Latitude Longitude Course Direction KTS MPH feet Rate Location/Type
Fri 04:12:50 PM 36.1953 -95.8633 73° East 158 182 1,900  Level Kansas City Center
Fri 04:13:38 PM 36.2061 -95.8181 73° East 193 222 3,100 1,636 Climbing Kansas City Center
Fri 04:14:18 PM 36.2369 -95.7978 28° Northeast 251 289 4,300 2,557 Climbing Kansas City Center
Fri 04:14:39 PM 36.2731 -95.7936 North 284 327 5,700 3,000 Climbing Kansas City Center
Fri 04:15:18 PM 36.3122 -95.7919 North 271 312 7,300 2,330 Climbing Kansas City Center
Fri 04:16:22 PM 36.3144 -95.8803 272° West 240 276 9,700 1,887 Climbing Kansas City Center
Fri 04:17:22 PM 36.2864 -95.9747 250° West 284 327 11,200 2,115 Climbing Kansas City Center
Fri 04:18:24 PM 36.2542 -96.0875 251° West 339 390 14,000 2,714 Climbing Kansas City Center
Fri 04:19:28 PM 36.2211 -96.1997 250° West 346 398 16,900 2,400 Climbing Kansas City Center
Fri 04:20:29 PM 36.1872 -96.3156 250° West 353 406 19,000 2,129 Climbing Kansas City Center
Fri 04:21:32 PM 36.1514 -96.4347 250° West 364 419 21,300 2,160 Climbing Kansas City Center
Fri 04:22:34 PM 36.1169 -96.5553 251° West 370 426 23,500 1,918 Climbing Kansas City Center
Fri 04:23:34 PM 36.0731 -96.7022 250° West 377 434 25,200 1,366 Climbing Kansas City Center
Fri 04:24:37 PM 36.0500 -96.8256 257° West 391 450 26,300 1,306 Climbing Kansas City Center
Fri 04:25:38 PM 36.0225 -96.9611 256° West 404 465 27,900 1,805 Climbing Kansas City Center
Fri 04:26:40 PM 35.9894 -97.1228 256° West 407 468 30,000 1,776 Climbing Kansas City Center
Fri 04:27:43 PM 35.9633 -97.2531 256° West 399 459 31,600 960 Climbing Kansas City Center
Fri 04:28:45 PM 35.9367 -97.3825 256° West 394 453 32,000 195 Climbing Kansas City Center
Fri 04:29:46 PM 35.9094 -97.5119 255° West 393 452 32,000 532 Level Kansas City Center
Fri 04:30:49 PM 35.8831 -97.6403 256° West 390 449 33,100 1,239 Climbing Kansas City Center
Fri 04:31:18 PM 35.8667 -97.7261 257° West 393 452 33,900 1,348 Climbing Fort Worth Center
Fri 04:32:18 PM 35.8392 -97.8386 253° West 393 452 35,100 1,041 Climbing Fort Worth Center
Fri 04:33:19 PM 35.8117 -97.9742 256° West 387 445 36,000 450 Climbing Fort Worth Center
Fri 04:34:18 PM 35.7922 -98.1019 259° West 387 445 36,000  Level Fort Worth Center
Fri 04:35:18 PM 35.7747 -98.2322 261° West 387 445 36,000  Level Fort Worth Center
Fri 04:36:19 PM 35.7614 -98.3575 263° West 387 445 36,000  Level Fort Worth Center
Fri 04:37:18 PM 35.7414 -98.4875 259° West 387 445 36,000  Level Fort Worth Center
Fri 04:38:18 PM 35.7258 -98.6153 262° West 387 445 36,000  Level Fort Worth Center
Fri 04:39:19 PM 35.7078 -98.7403 260° West 387 445 36,000  Level Fort Worth Center
Fri 04:40:18 PM 35.6917 -98.8625 261° West 382 440 36,000  Level Fort Worth Center
Fri 04:41:18 PM 35.6756 -98.9875 261° West 382 440 36,000  Level Fort Worth Center
Fri 04:42:19 PM 35.6594 -99.1150 261° West 377 434 36,000  Level Fort Worth Center
Fri 04:43:19 PM 35.6408 -99.2422 260° West 377 434 36,000  Level Fort Worth Center
Fri 04:44:18 PM 35.6308 -99.3544 264° West 377 434 36,000  Level Fort Worth Center
Fri 04:45:19 PM 35.6433 -99.4825 277° West 372 428 36,000  Level Fort Worth Center
Fri 04:47:13 PM 35.6689 -99.7356 277° West 382 440 36,000  Level Albuquerque Center
Fri 04:48:15 PM 35.6822 -99.8678 277° West 386 444 36,000  Level Albuquerque Center
Fri 04:49:17 PM 35.6933 -99.9992 276° West 385 443 36,000  Level Albuquerque Center
Fri 04:50:19 PM 35.7050 -100.1308 276° West 386 444 36,000  Level Albuquerque Center
Fri 04:51:21 PM 35.7058 -100.2622 270° West 384 442 36,000  Level Albuquerque Center
Fri 04:52:23 PM 35.7061 -100.3922 270° West 381 438 36,000  Level Albuquerque Center
Fri 04:53:25 PM 35.7075 -100.5467 271° West 377 434 36,000  Level Albuquerque Center
Fri 04:54:27 PM 35.7078 -100.6611 270° West 375 432 36,000  Level Albuquerque Center
Fri 04:55:29 PM 35.7081 -100.8119 270° West 371 427 36,000  Level Albuquerque Center
Fri 04:56:31 PM 35.7092 -100.9383 271° West 370 426 36,000  Level Albuquerque Center
Fri 04:57:34 PM 35.7086 -101.0644 270° West 371 427 36,000  Level Albuquerque Center
Fri 04:58:36 PM 35.7100 -101.1917 271° West 373 429 36,000  Level Albuquerque Center
Fri 04:59:38 PM 35.7106 -101.3197 270° West 376 433 36,000  Level Albuquerque Center
Fri 05:00:40 PM 35.7094 -101.4719 270° West 374 430 36,000  Level Albuquerque Center
Fri 05:01:42 PM 35.7094 -101.6000 270° West 377 434 36,000  Level Albuquerque Center
Fri 05:02:44 PM 35.7081 -101.7278 269° West 377 434 36,000  Level Albuquerque Center
Fri 05:03:46 PM 35.7094 -101.8550 271° West 376 433 36,000  Level Albuquerque Center
Fri 05:04:48 PM 35.7072 -101.9825 269° West 376 433 36,000  Level Albuquerque Center
Fri 05:05:50 PM 35.7067 -102.1353 270° West 376 433 36,000  Level Albuquerque Center
Fri 05:06:52 PM 35.7050 -102.2633 269° West 377 434 36,000  Level Albuquerque Center
Fri 05:07:54 PM 35.7044 -102.3903 270° West 374 430 36,000  Level Albuquerque Center
Fri 05:08:56 PM 35.7025 -102.5194 269° West 378 435 36,000  Level Albuquerque Center
Fri 05:09:58 PM 35.7011 -102.6494 269° West 381 438 36,000  Level Albuquerque Center
Fri 05:11:00 PM 35.7000 -102.7811 269° West 386 444 36,000  Level Albuquerque Center
Fri 05:12:02 PM 35.6975 -102.9419 269° West 389 448 36,000  Level Albuquerque Center
Fri 05:13:04 PM 35.6975 -103.0772 270° West 392 451 36,000  Level Albuquerque Center
Fri 05:14:06 PM 35.6944 -103.2139 268° West 396 456 36,000  Level Albuquerque Center
Fri 05:15:08 PM 35.6917 -103.3494 269° West 394 453 36,000  Level Albuquerque Center
Fri 05:16:10 PM 35.6894 -103.4844 269° West 393 452 36,000  Level Albuquerque Center
Fri 05:17:12 PM 35.6881 -103.6219 269° West 398 458 36,000  Level Albuquerque Center
Fri 05:18:14 PM 35.6847 -103.7572 268° West 396 456 36,000  Level Albuquerque Center
Fri 05:19:16 PM 35.6819 -103.9153 269° West 396 456 36,000  Level Albuquerque Center
Fri 05:20:19 PM 35.6792 -104.0503 269° West 395 455 36,000  Level Albuquerque Center
Fri 05:21:21 PM 35.6753 -104.1847 268° West 394 453 36,000  Level Albuquerque Center
Fri 05:22:23 PM 35.6725 -104.3178 269° West 391 450 36,000  Level Albuquerque Center
Fri 05:23:25 PM 35.6692 -104.4503 268° West 388 447 36,000  Level Albuquerque Center
Fri 05:24:27 PM 35.6636 -104.6025 267° West 383 441 36,000  Level Albuquerque Center
Fri 05:25:29 PM 35.6475 -104.7303 261° West 378 435 36,000  Level Albuquerque Center
Fri 05:26:31 PM 35.6328 -104.8594 262° West 379 436 36,000  Level Albuquerque Center
Fri 05:27:33 PM 35.6200 -104.9900 263° West 382 440 36,000  Level Albuquerque Center
Fri 05:28:35 PM 35.6047 -105.1231 262° West 388 447 36,000  Level Albuquerque Center
Fri 05:29:37 PM 35.5908 -105.2528 263° West 383 441 36,000  Level Albuquerque Center
Fri 05:30:39 PM 35.5767 -105.3828 262° West 381 438 36,000  Level Albuquerque Center
Fri 05:31:41 PM 35.5586 -105.5344 262° West 383 441 36,000  Level Albuquerque Center
Fri 05:32:43 PM 35.5547 -105.6656 268° West 383 441 36,000  Level Albuquerque Center
Fri 05:33:44 PM 35.5550 -105.7992 270° West 387 445 36,000  Level Albuquerque Center
Fri 05:34:46 PM 35.5531 -105.9186 269° West 384 442 36,000  Level Albuquerque Center
Fri 05:35:48 PM 35.5517 -106.0494 269° West 384 442 36,000 145 Level Albuquerque Center
Fri 05:36:50 PM 35.5489 -106.2069 269° West 386 444 36,300 339 Climbing Albuquerque Center
Fri 05:37:52 PM 35.5475 -106.3458 269° West 401 461 36,700 629 Climbing Albuquerque Center
Fri 05:38:54 PM 35.5453 -106.4842 269° West 406 467 37,600 629 Climbing Albuquerque Center
Fri 05:39:56 PM 35.5431 -106.6203 269° West 404 465 38,000 194 Climbing Albuquerque Center
Fri 05:40:58 PM 35.5400 -106.7525 268° West 395 455 38,000  Level Albuquerque Center
Fri 05:42:00 PM 35.5372 -106.8861 269° West 395 455 38,000  Level Albuquerque Center
Fri 05:43:02 PM 35.5331 -107.0456 268° West 394 453 38,000  Level Albuquerque Center
Fri 05:44:03 PM 35.5303 -107.1781 269° West 393 452 38,000  Level Albuquerque Center
Fri 05:45:05 PM 35.5258 -107.3250 268° West 393 452 38,000  Level Albuquerque Center
Fri 05:46:07 PM 35.5239 -107.4544 269° West 394 453 38,000  Level Albuquerque Center
Fri 05:47:09 PM 35.5194 -107.6072 268° West 400 460 38,000  Level Albuquerque Center
Fri 05:48:11 PM 35.5153 -107.7381 268° West 400 460 38,000  Level Albuquerque Center
Fri 05:49:13 PM 35.5117 -107.8703 268° West 403 464 38,000  Level Albuquerque Center
Fri 05:50:15 PM 35.5069 -108.0236 268° West 403 464 38,000  Level Albuquerque Center
Fri 05:51:17 PM 35.5033 -108.1553 268° West 403 464 38,000  Level Albuquerque Center
Fri 05:52:18 PM 35.4967 -108.3086 267° West 403 464 38,000  Level Albuquerque Center
Fri 05:53:20 PM 35.4925 -108.4408 268° West 403 464 38,000  Level Albuquerque Center
Fri 05:54:22 PM 35.4872 -108.5958 268° West 406 467 38,000  Level Albuquerque Center
Fri 05:55:24 PM 35.4825 -108.7264 267° West 402 463 38,000  Level Albuquerque Center
Fri 05:56:26 PM 35.4781 -108.8603 268° West 405 466 38,000  Level Albuquerque Center
Fri 05:57:27 PM 35.4836 -109.0136 273° West 404 465 38,000  Level Albuquerque Center
Fri 05:58:29 PM 35.4914 -109.1464 274° West 406 467 38,000  Level Albuquerque Center
Fri 05:59:31 PM 35.4981 -109.3025 273° West 407 468 38,000  Level Albuquerque Center
Fri 06:00:34 PM 35.5053 -109.4364 274° West 408 470 38,000  Level Albuquerque Center
Fri 06:01:35 PM 35.5114 -109.5897 273° West 405 466 38,000  Level Albuquerque Center
Fri 06:02:37 PM 35.5156 -109.7247 272° West 410 472 38,000  Level Albuquerque Center
Fri 06:03:38 PM 35.5211 -109.8586 273° West 410 472 38,000  Level Albuquerque Center
Fri 06:04:40 PM 35.5278 -110.0139 273° West 410 472 38,000  Level Albuquerque Center
Fri 06:05:42 PM 35.5311 -110.1483 272° West 410 472 38,000 -242 Level Albuquerque Center
Fri 06:06:44 PM 35.5364 -110.3050 272° West 411 473 37,500 -677 Descending Albuquerque Center
Fri 06:07:46 PM 35.5428 -110.4397 273° West 412 474 36,600 -976 Descending Albuquerque Center
Fri 06:08:47 PM 35.5489 -110.5961 273° West 413 475 35,500 -1,220 Descending Albuquerque Center
Fri 06:09:49 PM 35.5517 -110.7217 272° West 395 455 34,100 -726 Descending Albuquerque Center
Fri 06:10:51 PM 35.5575 -110.8744 273° West 398 458 34,000 -823 Descending Albuquerque Center
Fri 06:11:53 PM 35.5636 -111.0033 273° West 397 457 32,400 -1,645 Descending Albuquerque Center
Fri 06:12:55 PM 35.5667 -111.1286 272° West 389 448 30,600 -1,161 Descending Albuquerque Center
Fri 06:13:57 PM 35.5711 -111.2714 272° West 378 435 30,000 -293 Descending Albuquerque Center
Fri 06:14:58 PM 35.5739 -111.3944 272° West 378 435 30,000  Level Albuquerque Center
Fri 06:16:00 PM 35.5797 -111.5242 273° West 385 443 30,000  Level Albuquerque Center
Fri 06:17:02 PM 35.5831 -111.6519 272° West 382 440 30,000  Level Albuquerque Center
Fri 06:18:04 PM 35.5861 -111.8050 271° West 378 435 30,000  Level Albuquerque Center
Fri 06:19:06 PM 35.5914 -111.9333 273° West 378 435 30,000  Level Albuquerque Center
Fri 06:20:08 PM 35.5972 -112.0608 273° West 378 435 30,000  Level Albuquerque Center
Fri 06:20:42 PM 35.5981 -112.1381 271° West 379 436 30,000  Level Los Angeles Center
Fri 06:21:09 PM 35.5975 -112.1867 269° West 373 429 30,000  Level Albuquerque Center
Fri 06:22:11 PM 35.6006 -112.3128 272° West 372 428 30,000  Level Albuquerque Center
Fri 06:22:47 PM 35.6036 -112.3889 273° West 372 428 30,000  Level Los Angeles Center
Fri 06:23:49 PM 35.6072 -112.5436 272° West 378 435 30,000 -726 Level Los Angeles Center
Fri 06:24:51 PM 35.6108 -112.6728 272° West 374 430 28,500 -1,500 Descending Los Angeles Center
Fri 06:25:53 PM 35.6136 -112.8008 272° West 374 430 26,900 -1,016 Descending Los Angeles Center
Fri 06:26:55 PM 35.6153 -112.9308 271° West 381 438 26,400 -1,403 Descending Los Angeles Center
Fri 06:27:57 PM 35.6178 -113.0644 271° West 401 461 24,000 -1,161 Descending Los Angeles Center
Fri 06:28:59 PM 35.6206 -113.2356 271° West 415 478 24,000  Level Los Angeles Center
Fri 06:30:01 PM 35.6225 -113.3636 271° West 410 472 24,000  Level Los Angeles Center
Fri 06:31:03 PM 35.6239 -113.4958 271° West 393 452 24,000 -339 Level Los Angeles Center
Fri 06:32:05 PM 35.6353 -113.6261 276° West 387 445 23,300 -1,500 Descending Los Angeles Center
Fri 06:33:07 PM 35.6575 -113.7764 280° West 375 432 20,900 -2,112 Descending Los Angeles Center
Fri 06:34:10 PM 35.6747 -113.8997 280° West 369 425 18,900 -1,824 Descending Los Angeles Center
Fri 06:35:12 PM 35.6917 -114.0192 280° West 360 414 17,100 -1,790 Descending Los Angeles Center
Fri 06:36:14 PM 35.7083 -114.1344 280° West 346 398 15,200 -2,049 Descending Los Angeles Center
Fri 06:37:15 PM 35.7297 -114.2689 281° West 342 394 12,900 -1,574 Descending Los Angeles Center
Fri 06:38:16 PM 35.7469 -114.3744 281° West 321 369 12,000 -432 Descending Los Angeles Center
Fri 06:39:20 PM 35.8139 -114.4164 333° Northwest 293 337 12,000 -148 Level Los Angeles Center
Fri 06:40:18 PM 35.8950 -114.4547 339° North 291 335 11,700 -532 Descending Los Angeles Center
Fri 06:41:24 PM 35.9628 -114.5139 325° Northwest 267 307 10,900 -891 Descending Los Angeles Center
Fri 06:42:26 PM 35.9981 -114.5833 302° West 240 276 9,800 -1,086 Descending Los Angeles Center
Fri 06:43:20 PM 36.0331 -114.6475 304° West 234 269 8,800 -871 Descending Los Angeles Center
Fri 06:44:30 PM 36.0692 -114.7169 303° West 233 268 8,000 -422 Descending Los Angeles Center
Fri 06:45:28 PM 36.0736 -114.8017 274° West 236 272 7,900 -454 Descending Los Angeles Center
Fri 06:46:29 PM 36.0739 -114.8708 270° West 195 224 7,100 -1,023 Descending Los Angeles Center
Fri 06:47:37 PM 36.0742 -114.9422 270° West 201 231 5,700 -1,200 Descending Los Angeles Center
Fri 06:48:39 PM 36.0744 -115.0036 270° West 189 217 4,500 -1,389 Descending Los Angeles Center
Fri 06:49:25 PM 36.0731 -115.0547 268° West 174 200 3,200 -1,452 Descending Los Angeles Center
Fri 06:49:41 PM 36.0744 -115.0628 282° West 181 208 3,000 -787 Descending Los Angeles Center
Fri 06:50:26 PM 36.0739 -115.1078 269° West 154 177 2,400 -774 Descending Los Angeles Center
Fri 06:50:43 PM 36.0739 -115.1158 270° West 169 194 2,200 -706 Descending Los Angeles Center
Fri 06:52:00 PM 36.0667 -115.1500 270° West  Level FlightAware Approximate

Login

Don't have an account? Register now (free) for customized features, flight alerts, and more!